createdAt,value
2017-09-25T00:01:02.917Z,35.40
2017-09-25T00:03:31.252Z,36.37
2017-09-25T00:05:58.825Z,37.93
2017-09-25T00:08:26.420Z,42.83
2017-09-25T00:10:54.776Z,51.23
2017-09-25T00:13:23.883Z,34.07
2017-09-25T00:15:52.212Z,33.80
2017-09-25T00:18:19.808Z,37.30
2017-09-25T00:20:47.374Z,36.80
2017-09-25T00:23:15.028Z,39.93
2017-09-25T00:25:42.592Z,38.10
2017-09-25T00:28:10.184Z,41.23
2017-09-25T00:30:37.751Z,40.93
2017-09-25T00:33:05.375Z,39.57
2017-09-25T00:35:33.036Z,35.00
2017-09-25T00:38:02.132Z,43.07
2017-09-25T00:40:29.704Z,40.87
2017-09-25T00:42:57.313Z,35.90
2017-09-25T00:45:24.920Z,40.45
2017-09-25T00:47:52.492Z,48.27
2017-09-25T00:50:20.848Z,48.75
2017-09-25T00:53:00.472Z,49.40
2017-09-25T00:55:28.793Z,54.22
2017-09-25T00:57:57.132Z,51.90
2017-09-25T01:00:36.553Z,58.27
2017-09-25T01:03:16.768Z,58.45
2017-09-25T01:05:56.976Z,55.80
2017-09-25T01:08:24.572Z,51.20
2017-09-25T01:10:52.177Z,56.47
2017-09-25T01:13:19.856Z,57.63
2017-09-25T01:15:47.722Z,54.47
2017-09-25T01:18:15.398Z,69.33
2017-09-25T01:20:43.457Z,56.07
2017-09-25T01:23:11.269Z,59.58
2017-09-25T01:25:39.656Z,55.53
2017-09-25T01:28:07.992Z,69.53
2017-09-25T01:30:35.594Z,61.90
2017-09-25T01:33:04.869Z,58.35
2017-09-25T01:35:32.548Z,52.17
2017-09-25T01:38:02.652Z,59.83
2017-09-25T01:40:30.245Z,66.50
2017-09-25T01:42:58.580Z,55.20
2017-09-25T01:45:26.172Z,60.13
2017-09-25T01:47:53.744Z,54.17
2017-09-25T01:50:22.109Z,53.50
2017-09-25T01:52:49.677Z,57.23
2017-09-25T01:55:18.077Z,49.60
2017-09-25T01:57:45.675Z,49.13
2017-09-25T02:00:13.251Z,55.28
2017-09-25T02:02:40.927Z,47.20
2017-09-25T02:05:08.499Z,49.30
2017-09-25T02:07:36.165Z,56.50
2017-09-25T02:10:04.723Z,54.85
2017-09-25T02:12:32.620Z,64.60
2017-09-25T02:15:01.878Z,61.63
2017-09-25T02:17:29.456Z,53.37
2017-09-25T02:19:57.068Z,62.67
2017-09-25T02:22:24.680Z,65.17
2017-09-25T02:24:52.296Z,58.33
2017-09-25T02:27:19.864Z,55.53
2017-09-25T02:29:47.429Z,61.03
2017-09-25T02:32:15.025Z,64.83
2017-09-25T02:34:42.596Z,64.23
2017-09-25T02:37:10.977Z,61.05
2017-09-25T02:39:38.648Z,56.20
2017-09-25T02:42:06.988Z,61.27
2017-09-25T02:44:34.580Z,62.87
2017-09-25T02:47:03.996Z,66.53
2017-09-25T02:49:32.652Z,72.13
2017-09-25T02:52:01.144Z,71.43
2017-09-25T02:54:28.733Z,68.50
2017-09-25T02:56:57.067Z,55.23
2017-09-25T02:59:24.661Z,57.77
2017-09-25T03:01:52.996Z,65.07
2017-09-25T03:04:20.600Z,50.35
2017-09-25T03:06:48.940Z,65.40
2017-09-25T03:09:16.572Z,48.67
2017-09-25T03:11:44.145Z,49.33
2017-09-25T03:14:11.752Z,45.80
2017-09-25T03:16:39.327Z,53.53
2017-09-25T03:19:08.073Z,45.38
2017-09-25T03:21:35.644Z,47.30
2017-09-25T03:24:04.660Z,48.40
2017-09-25T03:26:32.312Z,47.53
2017-09-25T03:28:59.884Z,37.50
2017-09-25T03:31:27.535Z,43.93
2017-09-25T03:33:55.540Z,51.63
2017-09-25T03:36:23.900Z,43.90
2017-09-25T03:38:52.237Z,42.17
2017-09-25T03:41:19.845Z,43.20
2017-09-25T03:43:48.181Z,46.20
2017-09-25T03:46:16.057Z,49.80
2017-09-25T03:48:43.652Z,50.60
2017-09-25T03:51:11.988Z,49.60
2017-09-25T03:53:39.588Z,47.97
2017-09-25T03:56:07.168Z,53.53
2017-09-25T03:58:35.626Z,56.83
2017-09-25T04:01:04.588Z,67.47
2017-09-25T04:03:32.272Z,47.80
2017-09-25T04:06:02.268Z,49.30
2017-09-25T04:08:29.840Z,52.30
2017-09-25T04:10:57.436Z,49.00
2017-09-25T04:13:25.796Z,49.87
2017-09-25T04:15:53.460Z,56.87
2017-09-25T04:18:21.125Z,57.57
2017-09-25T04:20:48.725Z,50.23
2017-09-25T04:23:16.328Z,51.97
2017-09-25T04:25:43.928Z,51.90
2017-09-25T04:28:12.269Z,64.97
2017-09-25T04:30:39.860Z,54.63
2017-09-25T04:33:08.203Z,56.03
2017-09-25T04:35:36.297Z,57.67
2017-09-25T04:38:04.780Z,57.30
2017-09-25T04:40:33.861Z,45.50
2017-09-25T04:43:03.896Z,52.40
2017-09-25T04:45:31.556Z,57.43
2017-09-25T04:47:59.420Z,50.15
2017-09-25T04:50:27.756Z,50.07
2017-09-25T04:52:55.520Z,53.90
2017-09-25T04:55:23.128Z,51.67
2017-09-25T04:57:50.717Z,51.50
2017-09-25T05:00:19.079Z,42.07
2017-09-25T05:02:47.415Z,47.57
2017-09-25T05:05:15.108Z,48.28
2017-09-25T05:07:42.681Z,41.50
2017-09-25T05:10:11.152Z,40.08
2017-09-25T05:12:39.489Z,44.07
2017-09-25T05:15:07.199Z,44.23
2017-09-25T05:17:34.777Z,45.40
2017-09-25T05:20:04.948Z,40.90
2017-09-25T05:22:32.517Z,48.23
2017-09-25T05:25:01.116Z,45.80
2017-09-25T05:27:28.716Z,42.87
2017-09-25T05:29:56.284Z,40.73
2017-09-25T05:32:23.885Z,45.40
2017-09-25T05:34:51.560Z,47.87
2017-09-25T05:37:19.155Z,50.47
2017-09-25T05:39:47.487Z,41.33
2017-09-25T05:42:15.080Z,52.00
2017-09-25T05:44:43.416Z,45.00
2017-09-25T05:47:11.008Z,42.13
2017-09-25T05:49:38.593Z,41.53
2017-09-25T05:52:07.048Z,52.13
2017-09-25T05:54:34.711Z,37.33
2017-09-25T05:57:04.633Z,40.13
2017-09-25T05:59:32.204Z,43.77
2017-09-25T06:02:01.487Z,38.87
2017-09-25T06:04:29.149Z,33.85
2017-09-25T06:06:56.811Z,41.20
2017-09-25T06:09:24.406Z,35.50
2017-09-25T06:11:51.983Z,43.90
2017-09-25T06:14:19.580Z,36.60
2017-09-25T06:16:47.153Z,43.90
2017-09-25T06:19:14.805Z,35.78
2017-09-25T06:21:42.376Z,40.83
2017-09-25T06:24:09.978Z,43.25
2017-09-25T06:26:37.556Z,40.73
2017-09-25T06:29:05.169Z,39.95
2017-09-25T06:31:32.768Z,34.07
2017-09-25T06:34:02.821Z,38.22
2017-09-25T06:36:30.608Z,34.33
2017-09-25T06:38:58.180Z,30.87
2017-09-25T06:41:26.530Z,41.30
2017-09-25T06:43:54.212Z,65.00
2017-09-25T06:46:21.881Z,74.35
2017-09-25T06:48:49.472Z,72.87
2017-09-25T06:51:17.056Z,67.10
2017-09-25T06:53:44.652Z,67.23
2017-09-25T06:56:12.320Z,70.87
2017-09-25T06:58:39.908Z,63.60
2017-09-25T07:01:08.248Z,69.65
2017-09-25T07:03:35.849Z,64.13
2017-09-25T07:06:04.791Z,60.85
2017-09-25T07:08:32.580Z,66.83
2017-09-25T07:11:01.071Z,62.73
2017-09-25T07:13:29.412Z,69.93
2017-09-25T07:15:57.009Z,76.37
2017-09-25T07:18:25.471Z,78.97
2017-09-25T07:20:53.044Z,67.80
2017-09-25T07:23:20.618Z,68.32
2017-09-25T07:25:48.984Z,60.00
2017-09-25T07:28:17.324Z,70.40
2017-09-25T07:30:44.916Z,60.17
2017-09-25T07:33:12.584Z,74.65
2017-09-25T07:35:40.955Z,65.33
2017-09-25T07:38:08.532Z,64.30
2017-09-25T07:40:36.113Z,53.90
2017-09-25T07:43:04.968Z,59.83
2017-09-25T07:45:32.544Z,60.63
2017-09-25T07:48:00.141Z,60.03
2017-09-25T07:50:27.717Z,59.80
2017-09-25T07:52:55.333Z,65.90
2017-09-25T07:55:23.672Z,60.63
2017-09-25T07:57:51.243Z,53.90
2017-09-25T08:00:18.924Z,56.67
2017-09-25T08:02:47.259Z,60.23
2017-09-25T08:05:14.854Z,53.47
2017-09-25T08:07:42.428Z,58.37
2017-09-25T08:10:10.036Z,57.00
2017-09-25T08:12:37.603Z,57.10
2017-09-25T08:15:05.177Z,54.57
2017-09-25T08:17:32.771Z,53.80
2017-09-25T08:20:02.660Z,59.20
2017-09-25T08:22:30.256Z,51.97
2017-09-25T08:24:58.664Z,50.57
2017-09-25T08:27:26.388Z,59.67
2017-09-25T08:29:53.956Z,53.70
2017-09-25T08:32:21.533Z,44.67
2017-09-25T08:34:49.893Z,45.97
2017-09-25T08:37:17.468Z,36.17
2017-09-25T08:39:45.823Z,43.20
2017-09-25T08:42:13.423Z,42.03
2017-09-25T08:44:41.037Z,33.47
2017-09-25T08:47:08.608Z,33.87
2017-09-25T08:49:36.177Z,42.23
2017-09-25T08:52:04.549Z,44.53
2017-09-25T08:54:32.124Z,42.10
2017-09-25T08:57:01.416Z,38.37
2017-09-25T08:59:28.993Z,46.43
2017-09-25T09:01:57.368Z,50.20
2017-09-25T09:04:25.708Z,42.13
2017-09-25T09:06:53.291Z,45.80
2017-09-25T09:09:20.886Z,47.50
2017-09-25T09:11:48.481Z,55.40
2017-09-25T09:14:16.051Z,54.83
2017-09-25T09:16:43.640Z,57.47
2017-09-25T09:19:11.297Z,54.55
2017-09-25T09:21:38.988Z,55.77
2017-09-25T09:24:07.341Z,242.03
2017-09-25T09:26:36.440Z,54.17
2017-09-25T09:29:04.784Z,58.97
2017-09-25T09:31:32.476Z,62.00
2017-09-25T09:34:00.976Z,56.80
2017-09-25T09:36:29.748Z,59.47
2017-09-25T09:38:58.827Z,55.73
2017-09-25T09:41:26.412Z,59.27
2017-09-25T09:43:54.776Z,59.95
2017-09-25T09:46:23.121Z,63.30
2017-09-25T09:48:50.938Z,55.70
2017-09-25T09:51:18.508Z,63.97
2017-09-25T09:53:46.869Z,65.47
2017-09-25T09:56:14.436Z,61.72
2017-09-25T09:58:42.395Z,63.13
2017-09-25T10:01:09.968Z,58.37
2017-09-25T10:03:37.625Z,62.47
2017-09-25T10:06:05.288Z,49.40
2017-09-25T10:08:32.947Z,54.90
2017-09-25T10:11:02.733Z,57.10
2017-09-25T10:13:31.151Z,53.27
2017-09-25T10:15:59.513Z,65.20
2017-09-25T10:18:28.588Z,62.97
2017-09-25T10:20:56.172Z,61.27
2017-09-25T10:23:23.745Z,63.20
2017-09-25T10:25:51.400Z,60.03
2017-09-25T10:28:18.978Z,66.87
2017-09-25T10:30:47.321Z,68.73
2017-09-25T10:33:14.921Z,74.43
2017-09-25T10:35:43.257Z,80.57
2017-09-25T10:38:10.945Z,79.43
2017-09-25T10:40:39.285Z,75.50
2017-09-25T10:43:06.857Z,100.30
2017-09-25T10:45:34.540Z,91.40
2017-09-25T10:48:03.081Z,93.07
2017-09-25T10:50:30.688Z,73.37
2017-09-25T10:52:59.020Z,74.70
2017-09-25T10:55:26.628Z,66.30
2017-09-25T10:57:54.224Z,54.40
2017-09-25T11:00:22.036Z,52.03
2017-09-25T11:02:49.721Z,55.53
2017-09-25T11:05:17.288Z,50.38
2017-09-25T11:07:45.664Z,48.73
2017-09-25T11:10:13.325Z,46.50
2017-09-25T11:12:40.980Z,48.40
2017-09-25T11:15:10.080Z,48.45
2017-09-25T11:17:37.652Z,52.23
2017-09-25T11:20:06.032Z,51.33
2017-09-25T11:22:34.403Z,58.40
2017-09-25T11:25:02.856Z,57.27
2017-09-25T11:27:30.440Z,56.83
2017-09-25T11:29:59.540Z,56.13
2017-09-25T11:32:27.925Z,53.90
2017-09-25T11:34:55.497Z,58.93
2017-09-25T11:37:23.945Z,66.43
2017-09-25T11:39:51.515Z,61.40
2017-09-25T11:42:19.084Z,82.53
2017-09-25T11:44:47.445Z,75.03
2017-09-25T11:47:15.016Z,82.80
2017-09-25T11:49:42.608Z,28.60
2017-09-25T11:52:10.944Z,18.03
2017-09-25T11:54:38.561Z,43.67
2017-09-25T11:57:06.132Z,32.80
2017-09-25T11:59:33.701Z,25.20
2017-09-25T12:02:02.956Z,19.93
2017-09-25T12:04:31.292Z,23.83
2017-09-25T12:06:58.884Z,20.27
2017-09-25T12:09:26.456Z,32.40
2017-09-25T12:11:54.847Z,39.70
2017-09-25T12:14:23.184Z,36.83
2017-09-25T12:16:50.861Z,34.20
2017-09-25T12:19:19.972Z,35.78
2017-09-25T12:21:48.308Z,34.07
2017-09-25T12:24:15.909Z,34.30
2017-09-25T12:26:43.564Z,39.30
2017-09-25T12:29:11.181Z,33.75
2017-09-25T12:31:38.752Z,35.80
2017-09-25T12:34:06.337Z,32.90
2017-09-25T12:36:33.928Z,26.47
2017-09-25T12:39:02.984Z,25.17
2017-09-25T12:41:30.580Z,28.57
2017-09-25T12:43:58.932Z,25.97
2017-09-25T12:46:26.509Z,24.83
2017-09-25T12:48:54.408Z,23.50
2017-09-25T12:51:21.984Z,20.10
2017-09-25T12:53:49.597Z,21.10
2017-09-25T12:56:17.169Z,18.50
2017-09-25T12:58:45.537Z,16.23
2017-09-25T13:01:13.897Z,14.80
2017-09-25T13:03:41.472Z,16.20
2017-09-25T13:06:09.140Z,9.87
2017-09-25T13:08:36.716Z,16.60
2017-09-25T13:11:05.049Z,13.93
2017-09-25T13:13:32.741Z,22.10
2017-09-25T13:16:02.732Z,16.08
2017-09-25T13:18:30.416Z,12.97
2017-09-25T13:20:58.800Z,13.97
2017-09-25T13:23:26.437Z,15.87
2017-09-25T13:25:54.007Z,31.23
2017-09-25T13:28:22.051Z,31.83
2017-09-25T13:30:49.922Z,16.00
2017-09-25T13:33:18.320Z,14.00
2017-09-25T13:35:45.906Z,15.10
2017-09-25T13:38:13.468Z,13.27
2017-09-25T13:40:41.852Z,10.90
2017-09-25T13:43:10.225Z,11.57
2017-09-25T13:45:38.568Z,7.75
2017-09-25T13:48:06.162Z,10.25
2017-09-25T13:50:33.728Z,7.53
2017-09-25T13:53:03.053Z,9.93
2017-09-25T13:55:30.615Z,9.30
2017-09-25T13:57:58.220Z,10.13
2017-09-25T14:02:58.700Z,8.90
2017-09-25T14:05:27.084Z,7.13
2017-09-25T14:07:55.464Z,8.67
2017-09-25T14:10:23.869Z,7.07
2017-09-25T14:12:51.487Z,7.50
2017-09-25T14:15:19.129Z,9.10
2017-09-25T14:17:46.772Z,8.80
2017-09-25T14:20:14.437Z,7.90
2017-09-25T14:22:42.060Z,8.67
2017-09-25T14:25:10.476Z,13.88
2017-09-25T14:27:38.117Z,8.25
2017-09-25T14:30:05.741Z,8.53
2017-09-25T14:32:34.151Z,10.33
2017-09-25T14:35:03.077Z,10.85
2017-09-25T14:37:30.741Z,9.60
2017-09-25T14:39:58.360Z,10.33
2017-09-25T14:42:26.749Z,11.70
2017-09-25T14:44:55.156Z,10.97
2017-09-25T14:47:22.820Z,15.47
2017-09-25T14:49:50.463Z,16.33
2017-09-25T14:52:18.140Z,10.27
2017-09-25T14:54:45.808Z,10.53
2017-09-25T14:57:13.436Z,11.40
2017-09-25T14:59:42.059Z,12.23
2017-09-25T15:02:09.702Z,10.93
2017-09-25T15:04:37.325Z,12.10
2017-09-25T15:07:05.259Z,10.40
2017-09-25T15:09:32.899Z,8.43
2017-09-25T15:12:01.403Z,9.37
2017-09-25T15:14:29.048Z,7.40
2017-09-25T15:16:56.702Z,9.93
2017-09-25T15:19:24.348Z,7.20
2017-09-25T15:21:52.731Z,7.77
2017-09-25T15:24:21.132Z,8.82
2017-09-25T15:26:48.831Z,13.13
2017-09-25T15:29:16.569Z,14.38
2017-09-25T15:31:44.791Z,9.50
2017-09-25T15:34:12.501Z,8.70
2017-09-25T15:36:40.489Z,10.57
2017-09-25T15:39:08.135Z,16.12
2017-09-25T15:41:35.805Z,21.13
2017-09-25T15:44:03.820Z,13.68
2017-09-25T15:46:31.495Z,12.80
2017-09-25T15:48:59.886Z,13.70
2017-09-25T15:51:28.291Z,14.97
2017-09-25T15:53:55.936Z,18.20
2017-09-25T15:56:23.560Z,14.10
2017-09-25T15:58:51.203Z,17.13
2017-09-25T16:01:18.828Z,13.27
2017-09-25T16:03:46.496Z,12.80
2017-09-25T16:06:14.127Z,18.85
2017-09-25T16:08:42.512Z,20.60
2017-09-25T16:11:10.928Z,22.20
2017-09-25T16:13:38.591Z,24.20
2017-09-25T16:16:06.237Z,26.20
2017-09-25T16:18:33.881Z,19.55
2017-09-25T16:21:03.028Z,15.43
2017-09-25T16:23:30.676Z,17.60
2017-09-25T16:25:58.322Z,18.47
2017-09-25T16:28:26.005Z,19.47
2017-09-25T16:30:53.632Z,21.07
2017-09-25T16:33:22.044Z,21.37
2017-09-25T16:35:49.673Z,18.77
2017-09-25T16:38:18.112Z,20.12
2017-09-25T16:40:45.736Z,19.70
2017-09-25T16:43:13.413Z,21.15
2017-09-25T16:45:41.072Z,20.60
2017-09-25T16:48:08.695Z,19.77
2017-09-25T16:50:37.104Z,18.43
2017-09-25T16:53:04.737Z,21.67
2017-09-25T16:55:33.168Z,22.23
2017-09-25T16:58:02.025Z,24.75
2017-09-25T17:00:29.651Z,21.50
2017-09-25T17:02:57.388Z,21.57
2017-09-25T17:05:25.013Z,18.63
2017-09-25T17:07:53.049Z,18.67
2017-09-25T17:10:20.681Z,22.67
2017-09-25T17:12:48.347Z,17.90
2017-09-25T17:15:15.975Z,20.52
2017-09-25T17:17:43.601Z,22.90
2017-09-25T17:20:11.260Z,20.20
2017-09-25T17:22:38.888Z,24.40
2017-09-25T17:25:08.145Z,20.40
2017-09-25T17:27:36.545Z,21.93
2017-09-25T17:30:04.216Z,22.10
2017-09-25T17:32:31.851Z,26.73
2017-09-25T17:35:01.164Z,28.83
2017-09-25T17:37:28.824Z,24.23
2017-09-25T17:39:57.205Z,29.60
2017-09-25T17:42:25.712Z,29.80
2017-09-25T17:44:53.346Z,33.47
2017-09-25T17:47:21.789Z,34.03
2017-09-25T17:49:49.412Z,29.07
2017-09-25T17:52:17.035Z,32.23
2017-09-25T17:54:45.440Z,39.90
2017-09-25T17:57:13.081Z,34.53
2017-09-25T17:59:41.503Z,37.10
2017-09-25T18:02:09.133Z,30.88
2017-09-25T18:04:37.565Z,31.13
2017-09-25T18:07:05.208Z,35.87
2017-09-25T18:09:32.840Z,37.93
2017-09-25T18:12:02.776Z,42.10
2017-09-25T18:14:30.440Z,36.07
2017-09-25T18:16:58.088Z,47.73
2017-09-25T18:19:25.714Z,38.80
2017-09-25T18:21:53.376Z,40.97
2017-09-25T18:24:21.004Z,50.03
2017-09-25T18:26:48.639Z,43.87
2017-09-25T18:29:16.276Z,48.73
2017-09-25T18:31:44.700Z,57.73
2017-09-25T18:34:12.348Z,54.97
2017-09-25T18:36:39.973Z,54.95
2017-09-25T18:39:07.640Z,56.90
2017-09-25T18:41:35.264Z,56.47
2017-09-25T18:44:04.940Z,58.45
2017-09-25T18:46:32.620Z,53.63
2017-09-25T18:49:01.235Z,51.90
2017-09-25T18:51:28.883Z,55.80
2017-09-25T18:53:57.252Z,66.47
2017-09-25T18:56:24.924Z,63.63
2017-09-25T18:58:52.556Z,56.17
2017-09-25T19:01:20.176Z,62.90
2017-09-25T19:03:48.588Z,75.17
2017-09-25T19:06:17.028Z,71.80
2017-09-25T19:08:44.669Z,59.60
2017-09-25T19:11:12.297Z,63.40
2017-09-25T19:13:39.964Z,65.70
2017-09-25T19:16:07.592Z,58.87
2017-09-25T19:18:35.221Z,58.70
2017-09-25T19:21:04.948Z,56.15
2017-09-25T19:23:32.581Z,49.70
2017-09-25T19:26:01.168Z,51.07
2017-09-25T19:28:28.827Z,53.80
2017-09-25T19:30:56.591Z,62.60
2017-09-25T19:33:24.220Z,53.10
2017-09-25T19:35:52.608Z,52.77
2017-09-25T19:38:20.259Z,44.28
2017-09-25T19:40:48.652Z,40.97
2017-09-25T19:43:16.295Z,42.65
2017-09-25T19:45:44.684Z,45.10
2017-09-25T19:48:13.680Z,40.87
2017-09-25T19:53:41.515Z,44.37
2017-09-25T19:56:09.379Z,40.67
2017-09-25T19:58:37.539Z,40.90
2017-09-25T20:01:05.191Z,39.45
2017-09-25T20:03:32.812Z,46.93
2017-09-25T20:06:02.152Z,48.80
2017-09-25T20:08:29.780Z,53.87
2017-09-25T20:11:14.107Z,47.10
2017-09-25T20:13:41.739Z,52.77
2017-09-25T20:19:15.744Z,50.40
2017-09-25T20:21:43.403Z,56.87
2017-09-25T20:24:11.787Z,55.40
2017-09-25T20:26:40.176Z,49.70
2017-09-25T20:29:07.817Z,47.22
2017-09-25T20:31:36.205Z,49.87
2017-09-25T20:34:04.823Z,50.72
2017-09-25T20:36:32.448Z,46.30
2017-09-25T20:39:01.812Z,42.30
2017-09-25T20:41:39.340Z,48.23
2017-09-25T20:44:07.785Z,52.53
2017-09-25T20:46:35.412Z,48.00
2017-09-25T20:49:04.828Z,44.30
2017-09-25T20:51:32.472Z,50.47
2017-09-25T20:54:00.091Z,45.87
2017-09-25T20:56:27.739Z,54.80
2017-09-25T20:58:55.364Z,57.30
2017-09-25T21:01:23.175Z,49.22
2017-09-25T21:03:50.908Z,56.70
2017-09-25T21:06:18.565Z,52.93
2017-09-25T21:08:46.216Z,56.20
2017-09-25T21:11:13.891Z,52.00
2017-09-25T21:13:41.559Z,52.83
2017-09-25T21:16:09.185Z,56.78
2017-09-25T21:18:36.847Z,64.80
2017-09-25T21:21:05.232Z,60.87
2017-09-25T21:23:33.620Z,76.87
2017-09-25T21:29:04.784Z,80.13
2017-09-25T21:31:33.224Z,70.57
2017-09-25T21:34:02.867Z,76.37
2017-09-25T21:36:31.277Z,78.10
2017-09-25T21:38:59.467Z,68.37
2017-09-25T21:41:27.199Z,74.57
2017-09-25T21:43:55.088Z,75.60
2017-09-25T21:46:22.719Z,82.37
2017-09-25T21:48:51.166Z,92.27
2017-09-25T21:51:18.905Z,91.75
2017-09-25T21:53:46.559Z,97.47
2017-09-25T21:56:14.223Z,94.82
2017-09-25T21:58:41.894Z,95.83
2017-09-25T22:01:09.549Z,129.90
2017-09-25T22:03:37.212Z,108.57
2017-09-25T22:06:04.865Z,108.20
2017-09-25T22:08:32.500Z,114.50
2017-09-25T22:11:01.836Z,123.67
2017-09-25T22:13:29.509Z,112.93
2017-09-25T22:15:57.432Z,95.60
2017-09-25T22:18:25.824Z,96.20
2017-09-25T22:20:54.048Z,161.43
2017-09-25T22:23:21.703Z,109.37
2017-09-25T22:25:49.351Z,114.43
2017-09-25T22:28:17.582Z,176.60
2017-09-25T22:30:45.976Z,226.33
2017-09-25T22:33:14.415Z,319.80
2017-09-25T22:35:42.036Z,446.57
2017-09-25T22:38:09.660Z,417.45
2017-09-25T22:40:37.312Z,432.47
2017-09-25T22:46:07.533Z,420.73
2017-09-25T22:48:35.165Z,154.27
2017-09-25T22:51:04.815Z,316.23
2017-09-25T22:53:32.439Z,176.00
2017-09-25T22:56:00.996Z,145.37
2017-09-25T22:58:29.412Z,328.87
2017-09-25T23:00:57.072Z,151.80
2017-09-25T23:03:24.739Z,119.80
2017-09-25T23:05:56.332Z,149.27
2017-09-25T23:08:24.069Z,129.50
2017-09-25T23:10:51.964Z,107.93
2017-09-25T23:13:19.637Z,91.60
2017-09-25T23:15:47.347Z,91.37
2017-09-25T23:18:15.586Z,82.15
2017-09-25T23:20:44.723Z,85.63
2017-09-25T23:23:12.352Z,87.03
2017-09-25T23:25:40.767Z,88.13
2017-09-25T23:28:08.387Z,78.90
2017-09-25T23:30:38.796Z,77.03
2017-09-25T23:33:06.419Z,92.97
2017-09-25T23:35:34.044Z,81.30
2017-09-25T23:38:03.792Z,78.07
2017-09-25T23:40:31.423Z,71.17
2017-09-25T23:42:59.927Z,82.33
2017-09-25T23:45:27.575Z,97.30
2017-09-25T23:47:55.244Z,96.33
2017-09-25T23:50:22.863Z,92.47
2017-09-25T23:52:50.483Z,94.03
2017-09-25T23:55:18.127Z,157.65
2017-09-25T23:57:45.746Z,144.27
